An Lac, Viet Nam

6:38 PM ICT on December 09, 2016 (GMT +0700)
Doi Can Street | | Change Station

Elev 46 ft 21.04 °N, 105.81 °E | Updated 16 minutes ago

Haze
Haze
77.2 °F
Feels Like 79 °F
N
0.0
Wind Variable Wind from SE
Gusts 0.2 mph

Today
High -- | Low -- °F
--% Chance of Precip.
Yesterday
High -- | Low -- °F
Precip. -- in
Pressure 29.89 in
Visibility 3.1 miles
Clouds
Heat Index 79 °F
Dew Point 60 °F
Humidity 54%
Rainfall 0.05 in
Snow Depth Not available.
6:21 AM 5:15 PM
Waxing Gibbous, 73% visible
METAR VVNB 091130Z 06003KT 5000 HZ NSC 22/09 Q1012 NOSIG
Pressure 29.89 in
Visibility 3.1 miles
Clouds
Heat Index 79 °F
Dew Point 60 °F
Humidity 54%
Rainfall 0.05 in
Snow Depth Not available.
6:21 AM 5:15 PM
Waxing Gibbous, 73% visible
METAR VVNB 091130Z 06003KT 5000 HZ NSC 22/09 Q1012 NOSIG

10-Day Weather Forecast

No radar image for this location.
×

Almanac

Astronomy

Dec. 09, 2016 Rise Set
Actual Time
Civil Twilight
Nautical Twilight
Astronomical Twilight
Moon
Length of Visible Light
Length of Day
Tomorrow will be .
, % of the Moon is Illuminated

Today's Extremes

Country Highs Country Lows

Community

WunderPhotos

Upload Photos

1,956,378 photos uploaded!

WunderBlog® & News

Nearby

Air Quality

  Air Quality AQ Index Pollutant
Not available.

Snow Depth

Station Depth Elevation

Earthquake Activity

City Distance Mag. Time & Date
Minimum magnitude displayed is 2.5.

Coastal Water Temperatures

Place Temperature

Stations

Nearby Weather Stations

Station Location Temp. Windchill Dew Point Humidity Wind Precip. Elev Updated Type